Terminal Aerodrome Forecast
Issued by NWS

Home | Current Version | Previous Version | Text Only | Print | Product List | Glossary On
Versions: 1 2 3 4 5 6 7 8 9 10 11 12 13 14 15
340
FTAK31 PAFA 221211 AAA
TAFAQT
TAF AMD
PAQT 221211Z 2212/2312 27007KT P6SM -RA OVC060
     FM221900 26008KT P6SM SCT040 BKN100
     FM230000 07006KT P6SM SCT100 SCT200=

USA.gov is the U.S. government's official web portal to all federal, state and local government web resources and services.